Tomkins Cove, New York
Current Conditions -  °F | °C
As of 8:45 AM on Saturday 25 Oct 2014 (Local Time) from KSWF Reporting Station
Clear Clear  
Wind Chill:   Ceiling: Unl
Heat Index:   Visibility: 20mi
Dew Point:   Wind: 12mph
Humidity: 76%   Direction: 240°WSW
Pressure: 29.85"   Gusts: NA
Location:  41.26°N, 73.98°W
Report Text: KSWF 251245Z 24010KT 20SM SKC 08/04 A2985
Loading
Personal Weather Stations






























Interactive Weather Map
Tropical Storm Tracking
New forecast layout! Learn more

10-Day Weather Forecast

Advertisements
Track Severe Weather on mobile